Time;durP1;ratioP1;P1;durP2;ratioP2;P2;SDS_P1;SDS_P2;PMS_P1;PMS_P2;Temp;Humidity;BMP_temperature;BMP_pressure;BME280_temperature;BME280_humidity;BME280_pressure;Samples;Min_cycle;Max_cycle;Signal;HPM_P1;HPM_P2
2024/02/09 00:01:52;;;;;;;21.87;10.37;;;;;;;2.03;74.77;98935.91;5124310;27;20215;-52
2024/02/09 00:04:21;;;;;;;20.57;10.83;;;;;;;2.00;74.46;98931.66;5120011;27;20654;-53
2024/02/09 00:06:48;;;;;;;22.87;11.67;;;;;;;2.01;74.81;98935.03;5108543;27;20208;-55
2024/02/09 00:09:16;;;;;;;16.27;10.00;;;;;;;2.03;75.64;98931.69;5121070;27;20245;-54
2024/02/09 00:11:45;;;;;;;23.27;11.03;;;;;;;2.04;75.86;98927.44;5118645;27;20195;-57
2024/02/09 00:14:13;;;;;;;17.43;10.03;;;;;;;2.04;75.17;98924.91;5125837;27;20234;-54
2024/02/09 00:16:42;;;;;;;21.13;11.27;;;;;;;2.04;75.50;98912.19;5116104;27;20327;-52
2024/02/09 00:19:11;;;;;;;20.13;10.40;;;;;;;2.02;75.77;98898.63;5115992;27;20212;-55
2024/02/09 00:21:40;;;;;;;24.90;10.97;;;;;;;2.03;75.39;98900.34;5112245;27;20223;-52
2024/02/09 00:24:08;;;;;;;19.27;10.67;;;;;;;2.04;75.97;98896.97;5116398;27;20199;-55
2024/02/09 00:26:36;;;;;;;18.17;10.33;;;;;;;2.00;75.44;98893.56;5117154;27;20204;-53
2024/02/09 00:29:04;;;;;;;19.27;10.27;;;;;;;1.98;75.76;98891.84;5123055;27;20203;-51
2024/02/09 00:31:32;;;;;;;17.50;9.90;;;;;;;1.91;75.71;98896.91;5115226;27;20604;-52
2024/02/09 00:34:01;;;;;;;18.07;9.50;;;;;;;1.89;75.27;98895.19;5112579;27;20208;-63
2024/02/09 00:36:34;;;;;;;17.30;10.57;;;;;;;1.86;75.64;98896.03;5117368;27;20204;-53
2024/02/09 00:39:05;;;;;;;15.17;9.27;;;;;;;1.88;76.85;98907.06;5111761;28;20204;-53
2024/02/09 00:41:33;;;;;;;20.07;10.53;;;;;;;1.91;76.70;98898.56;5112832;27;20208;-53
2024/02/09 00:44:03;;;;;;;13.27;8.13;;;;;;;1.94;76.28;98912.13;5114209;27;20196;-50
2024/02/09 00:46:32;;;;;;;13.93;8.07;;;;;;;1.91;76.36;98912.16;5116993;27;20207;-54
2024/02/09 00:49:04;;;;;;;13.00;8.03;;;;;;;1.88;76.50;98911.28;5119742;27;20659;-53
2024/02/09 00:51:33;;;;;;;13.20;8.40;;;;;;;1.87;75.91;98914.66;5106035;28;20223;-54
2024/02/09 00:54:01;;;;;;;16.40;8.93;;;;;;;1.83;75.33;98918.84;5115111;27;20228;-55
2024/02/09 00:56:30;;;;;;;15.70;8.83;;;;;;;1.82;75.81;98922.25;5114089;27;20223;-57
2024/02/09 00:58:58;;;;;;;14.77;8.63;;;;;;;1.75;76.42;98919.66;5111374;27;20285;-54
2024/02/09 01:01:26;;;;;;;16.60;7.80;;;;;;;1.70;74.99;98919.66;5105808;27;20210;-53
2024/02/09 01:03:54;;;;;;;13.17;8.13;;;;;;;1.67;76.13;98907.78;5113290;27;20203;-53
2024/02/09 01:06:24;;;;;;;14.10;7.87;;;;;;;1.71;75.93;98906.09;5113034;27;20207;-57
2024/02/09 01:08:52;;;;;;;13.23;7.93;;;;;;;1.78;76.27;98900.22;5111910;27;20231;-53
2024/02/09 01:11:21;;;;;;;15.93;8.83;;;;;;;1.82;76.89;98901.94;5112180;28;20950;-54
2024/02/09 02:44:57;;;;;;;27.80;15.00;;;;;;;1.15;86.04;98897.28;5114584;28;20200;-52
2024/02/09 02:47:25;;;;;;;23.33;14.40;;;;;;;1.16;85.48;98898.13;5108467;28;20199;-53
2024/02/09 03:06:39;;;;;;;22.37;13.37;;;;;;;1.07;87.33;98893.84;5115332;28;20615;-57
2024/02/09 03:09:28;;;;;;;20.70;12.30;;;;;;;1.08;86.47;98890.47;5108486;27;20292;-52
2024/02/09 03:11:59;;;;;;;21.03;12.23;;;;;;;1.00;86.31;98891.25;5118087;27;20211;-56
2024/02/09 03:14:30;;;;;;;20.37;12.70;;;;;;;0.96;86.63;98893.75;5117236;27;20751;-54
2024/02/09 03:16:59;;;;;;;21.80;12.77;;;;;;;0.91;86.64;98892.00;5117419;27;20590;-55
2024/02/09 03:19:27;;;;;;;21.70;12.57;;;;;;;0.83;87.01;98889.41;5119752;27;20302;-53
2024/02/09 03:21:56;;;;;;;21.17;12.50;;;;;;;0.91;87.48;98908.06;5115997;27;20253;-53
2024/02/09 03:24:24;;;;;;;20.53;12.13;;;;;;;0.93;87.60;98908.94;5111559;27;20218;-63
2024/02/09 03:26:52;;;;;;;23.37;12.43;;;;;;;0.95;87.11;98907.25;5111768;27;20227;-58
2024/02/09 03:29:20;;;;;;;21.07;12.53;;;;;;;0.95;86.74;98904.72;5116280;27;20223;-51
2024/02/09 03:31:48;;;;;;;21.30;11.77;;;;;;;0.91;87.34;98897.06;5115238;27;20204;-55
2024/02/09 03:34:18;;;;;;;21.23;12.73;;;;;;;0.89;87.37;98902.16;5121156;27;20252;-54
2024/02/09 03:36:46;;;;;;;22.57;12.53;;;;;;;0.89;87.34;98904.69;5117129;27;20643;-54
2024/02/09 03:39:14;;;;;;;21.60;11.70;;;;;;;0.92;88.50;98908.91;5111969;28;20204;-55
2024/02/09 03:41:42;;;;;;;20.10;12.37;;;;;;;0.94;88.05;98907.25;5113141;27;20704;-65
2024/02/09 03:44:10;;;;;;;19.63;12.00;;;;;;;0.94;88.13;98905.56;5102107;27;20279;-53
2024/02/09 03:46:38;;;;;;;20.53;11.30;;;;;;;0.94;87.44;98913.16;5118159;27;20727;-53
2024/02/09 03:49:06;;;;;;;24.43;13.27;;;;;;;1.00;87.77;98916.63;5116948;27;20207;-53
2024/02/09 03:51:35;;;;;;;23.17;13.17;;;;;;;1.01;87.81;98913.22;5114341;27;20666;-55
2024/02/09 03:54:04;;;;;;;21.47;12.57;;;;;;;1.03;87.23;98911.53;5113529;28;20208;-52
2024/02/09 03:56:31;;;;;;;18.00;11.50;;;;;;;0.96;87.25;98916.56;5112158;28;20649;-54
2024/02/09 03:58:59;;;;;;;24.17;12.80;;;;;;;0.92;87.84;98914.84;5116217;27;20200;-53
2024/02/09 04:01:27;;;;;;;21.07;12.30;;;;;;;0.90;88.03;98919.06;5111061;28;20655;-54
2024/02/09 04:03:55;;;;;;;21.20;13.03;;;;;;;0.89;87.14;98924.97;5118399;27;20230;-54
2024/02/09 04:06:24;;;;;;;20.90;12.37;;;;;;;0.85;87.51;98925.78;5121073;27;20188;-59
2024/02/09 04:08:54;;;;;;;20.70;12.43;;;;;;;0.84;87.46;98930.81;5110814;28;20290;-54
2024/02/09 04:11:23;;;;;;;21.63;13.23;;;;;;;0.81;87.61;98934.19;5114225;28;20570;-52
2024/02/09 04:13:52;;;;;;;21.27;12.90;;;;;;;0.82;88.61;98938.41;5111227;28;20582;-60
2024/02/09 04:16:20;;;;;;;21.40;13.43;;;;;;;0.83;88.21;98950.25;5110666;28;20265;-52
2024/02/09 04:18:48;;;;;;;20.33;12.73;;;;;;;0.83;88.61;98929.97;5124679;27;20203;-52
2024/02/09 04:21:16;;;;;;;23.00;13.37;;;;;;;0.80;87.98;98921.47;5120511;27;20227;-55
2024/02/09 04:23:45;;;;;;;22.23;14.00;;;;;;;0.79;88.56;98937.53;5115786;27;20249;-56
2024/02/09 04:26:14;;;;;;;23.50;13.77;;;;;;;0.77;88.61;98927.38;5117947;27;20271;-53
2024/02/09 04:28:42;;;;;;;24.30;13.37;;;;;;;0.76;88.73;98918.06;5123208;27;20294;-54
2024/02/09 04:31:10;;;;;;;17.20;10.97;;;;;;;0.74;89.03;98917.22;5117061;27;20556;-57
2024/02/09 04:33:39;;;;;;;19.80;11.40;;;;;;;0.70;87.87;98918.00;5117843;27;20208;-54
2024/02/09 04:36:07;;;;;;;22.53;13.17;;;;;;;0.61;88.52;98912.84;5110054;27;20690;-56
2024/02/09 04:38:40;;;;;;;20.97;12.87;;;;;;;0.60;89.29;98912.00;5102414;28;20211;-55
2024/02/09 04:41:08;;;;;;;25.37;14.10;;;;;;;0.59;89.78;98899.31;5114333;27;20646;-55
2024/02/09 04:43:38;;;;;;;22.70;13.00;;;;;;;0.58;89.57;98887.47;5113633;27;20667;-57
2024/02/09 04:46:06;;;;;;;27.23;15.33;;;;;;;0.59;89.88;98873.97;5115235;27;20196;-54
2024/02/09 04:48:34;;;;;;;23.03;13.30;;;;;;;0.61;89.50;98875.69;5114463;27;20676;-55
2024/02/09 04:51:06;;;;;;;25.53;14.83;;;;;;;0.58;89.44;98865.50;5110007;28;20196;-54
2024/02/09 04:53:34;;;;;;;28.80;15.63;;;;;;;0.52;90.17;98872.22;5110066;27;20215;-55
2024/02/09 04:56:02;;;;;;;23.97;14.50;;;;;;;0.52;90.94;98872.22;5119705;27;20285;-54
2024/02/09 04:58:31;;;;;;;23.83;13.40;;;;;;;0.50;89.78;98868.81;5113630;27;20231;-54
2024/02/09 05:01:00;;;;;;;27.40;14.67;;;;;;;0.45;90.39;98867.09;5112687;28;20567;-53
2024/02/09 05:03:28;;;;;;;23.37;13.77;;;;;;;0.42;90.71;98879.72;5115783;27;20195;-54
2024/02/09 05:05:56;;;;;;;27.23;15.67;;;;;;;0.38;90.40;98879.69;5113323;27;20647;-54
2024/02/09 05:08:24;;;;;;;27.30;15.63;;;;;;;0.39;90.25;98888.97;5112492;28;20200;-55
2024/02/09 05:10:52;;;;;;;24.97;15.23;;;;;;;0.36;91.17;98889.78;5109815;27;20219;-53
2024/02/09 05:13:20;;;;;;;25.90;15.80;;;;;;;0.36;90.86;98902.44;5119021;27;20670;-54
2024/02/09 05:15:49;;;;;;;24.80;14.40;;;;;;;0.38;90.91;98910.94;5112731;27;20310;-54
2024/02/09 05:18:18;;;;;;;27.40;14.93;;;;;;;0.41;91.28;98902.53;5113007;27;20239;-55
2024/02/09 05:20:49;;;;;;;23.90;14.73;;;;;;;0.40;90.38;98904.19;5113378;27;20238;-53
2024/02/09 05:23:17;;;;;;;25.10;15.20;;;;;;;0.40;91.21;98899.13;5113340;27;20563;-55
2024/02/09 05:25:45;;;;;;;29.00;14.80;;;;;;;0.42;91.08;98897.47;5112417;27;20535;-55
2024/02/09 05:28:13;;;;;;;24.33;15.10;;;;;;;0.45;90.40;98902.56;5106182;27;20208;-59
2024/02/09 05:30:41;;;;;;;25.37;15.03;;;;;;;0.40;90.69;98899.13;5111464;28;20629;-53
2024/02/09 05:33:10;;;;;;;23.63;14.57;;;;;;;0.35;90.71;98892.31;5105900;28;20203;-52
2024/02/09 05:35:41;;;;;;;26.87;15.47;;;;;;;0.33;91.21;98897.38;5119607;27;20212;-55
2024/02/09 05:38:09;;;;;;;30.80;16.97;;;;;;;0.31;91.44;98888.91;5112002;28;20587;-56
2024/02/09 05:40:37;;;;;;;28.43;15.73;;;;;;;0.36;91.75;98892.31;5105865;27;20284;-52
2024/02/09 05:43:05;;;;;;;27.47;15.87;;;;;;;0.41;91.66;98903.38;5112162;28;20567;-52
2024/02/09 05:45:34;;;;;;;30.73;16.03;;;;;;;0.45;91.62;98892.44;5117784;27;20222;-55
2024/02/09 05:48:02;;;;;;;26.97;16.73;;;;;;;0.48;91.67;98877.25;5116556;27;20207;-52
2024/02/09 05:50:32;;;;;;;28.00;14.70;;;;;;;0.47;91.28;98873.00;5115370;27;20244;-60
2024/02/09 05:53:09;;;;;;;25.03;15.23;;;;;;;0.47;90.99;98867.09;5120659;27;20207;-54
2024/02/09 05:55:38;;;;;;;26.27;15.07;;;;;;;0.47;90.25;98867.09;5103811;28;20200;-54
2024/02/09 05:58:06;;;;;;;28.87;14.73;;;;;;;0.45;90.93;98879.75;5110451;28;20196;-53
2024/02/09 06:00:34;;;;;;;24.00;15.13;;;;;;;0.44;90.50;98874.66;5109998;27;20249;-53
2024/02/09 06:03:04;;;;;;;25.83;15.33;;;;;;;0.43;91.45;98888.16;5108277;27;20204;-54
2024/02/09 06:05:32;;;;;;;24.03;14.37;;;;;;;0.42;90.82;98886.47;5105803;27;20207;-52
2024/02/09 06:08:01;;;;;;;29.27;16.27;;;;;;;0.39;90.79;98892.34;5108542;28;20648;-54
2024/02/09 06:10:30;;;;;;;25.67;16.10;;;;;;;0.40;91.36;98883.06;5115996;27;20734;-56
2024/02/09 06:12:58;;;;;;;27.03;16.57;;;;;;;0.37;91.58;98878.84;5114999;27;20665;-52
2024/02/09 06:15:27;;;;;;;26.97;15.60;;;;;;;0.40;91.07;98890.66;5117750;27;20251;-56
2024/02/09 06:17:56;;;;;;;27.57;15.47;;;;;;;0.38;91.23;98890.66;5110961;27;20223;-54
2024/02/09 06:20:24;;;;;;;24.83;15.00;;;;;;;0.38;91.04;98893.19;5111075;28;20204;-55
2024/02/09 06:22:52;;;;;;;29.50;16.30;;;;;;;0.42;91.22;98896.63;5110061;28;20203;-57
2024/02/09 06:25:26;;;;;;;23.03;14.77;;;;;;;0.44;91.14;98898.34;5108942;27;20255;-53
2024/02/09 06:27:56;;;;;;;27.27;15.27;;;;;;;0.45;91.14;98900.03;5122869;27;20226;-55
2024/02/09 06:30:24;;;;;;;27.33;15.37;;;;;;;0.46;91.57;98911.84;5125773;27;20592;-53
2024/02/09 06:32:52;;;;;;;25.43;14.80;;;;;;;0.55;91.50;98897.56;5124192;27;20282;-53
2024/02/09 06:35:20;;;;;;;25.70;15.23;;;;;;;0.61;90.22;98898.50;5128450;27;20666;-56
2024/02/09 06:37:50;;;;;;;25.43;13.93;;;;;;;0.63;89.90;98896.00;5117191;27;20247;-54
2024/02/09 06:40:19;;;;;;;22.47;13.27;;;;;;;0.67;90.44;98890.97;5121324;27;20290;-52
2024/02/09 06:42:47;;;;;;;24.30;12.80;;;;;;;0.75;90.63;98901.16;5110293;27;20578;-55
2024/02/09 06:45:16;;;;;;;19.77;12.40;;;;;;;0.74;89.74;98909.63;5116593;27;20291;-55
2024/02/09 06:47:44;;;;;;;19.23;11.57;;;;;;;0.69;88.81;98901.09;5117491;27;20207;-53
2024/02/09 06:50:12;;;;;;;19.33;11.23;;;;;;;0.69;89.07;98896.03;5118120;27;20211;-51
2024/02/09 06:52:41;;;;;;;20.77;12.50;;;;;;;0.70;89.10;98897.72;5117354;28;20291;-58
2024/02/09 06:55:11;;;;;;;20.60;11.33;;;;;;;0.74;89.50;98894.41;5124182;27;20584;-54
2024/02/09 06:57:44;;;;;;;20.43;11.70;;;;;;;0.78;88.75;98906.28;5111136;27;20224;-55
2024/02/09 07:00:14;;;;;;;21.00;11.77;;;;;;;0.82;88.80;98897.00;5117072;27;20196;-53
2024/02/09 07:02:46;;;;;;;18.70;11.67;;;;;;;0.86;88.36;98891.97;5119136;27;20243;-51
2024/02/09 07:05:15;;;;;;;20.13;11.27;;;;;;;0.85;88.71;98902.97;5122385;27;20594;-53
2024/02/09 07:07:45;;;;;;;17.93;10.87;;;;;;;0.84;89.01;98905.47;5117692;28;20196;-53
2024/02/09 07:10:16;;;;;;;18.77;11.33;;;;;;;0.85;89.02;98897.88;5117506;28;20666;-54
2024/02/09 07:12:44;;;;;;;20.23;11.33;;;;;;;0.87;89.05;98901.25;5113384;27;20199;-53
2024/02/09 07:15:14;;;;;;;17.93;11.43;;;;;;;0.87;88.04;98900.41;5115700;27;20207;-58
2024/02/09 07:17:44;;;;;;;16.83;10.53;;;;;;;0.85;88.59;98887.75;5117928;27;20705;-55
2024/02/09 07:20:16;;;;;;;20.27;11.33;;;;;;;0.81;88.07;98880.06;5109078;27;20716;-54
2024/02/09 07:22:45;;;;;;;16.60;9.87;;;;;;;0.76;88.18;98886.81;5121328;27;20203;-52
2024/02/09 07:25:13;;;;;;;15.60;10.47;;;;;;;0.72;88.09;98881.69;5119922;27;20199;-54
2024/02/09 07:27:41;;;;;;;18.83;10.87;;;;;;;0.70;88.56;98883.38;5121758;27;20241;-54
2024/02/09 07:30:11;;;;;;;17.23;9.70;;;;;;;0.70;88.85;98873.25;5117981;27;20207;-55
2024/02/09 07:32:38;;;;;;;19.77;11.70;;;;;;;0.70;89.16;98877.44;5122259;27;20517;-57
2024/02/09 07:35:10;;;;;;;16.40;10.73;;;;;;;0.69;88.73;98873.22;5117769;27;20221;-55
2024/02/09 07:37:38;;;;;;;16.87;9.77;;;;;;;0.69;88.94;98865.59;5109717;27;20219;-54
2024/02/09 07:40:09;;;;;;;19.30;10.70;;;;;;;0.71;88.12;98863.94;5111777;28;20332;-57
2024/02/09 07:42:37;;;;;;;16.63;10.33;;;;;;;0.68;89.07;98858.84;5120347;27;20200;-64
2024/02/09 07:45:12;;;;;;;19.80;10.80;;;;;;;0.70;89.37;98862.22;5116738;27;20200;-57
2024/02/09 07:47:40;;;;;;;17.20;9.70;;;;;;;0.72;89.02;98860.56;5119840;27;20290;-55
2024/02/09 07:50:10;;;;;;;14.60;9.07;;;;;;;0.76;88.88;98852.16;5113802;27;20211;-55
2024/02/09 07:52:39;;;;;;;17.07;7.73;;;;;;;0.78;88.26;98857.25;5111978;28;20197;-61
2024/02/09 07:55:07;;;;;;;14.97;8.83;;;;;;;0.73;88.56;98844.50;5113063;27;20561;-54
2024/02/09 07:57:36;;;;;;;15.73;9.13;;;;;;;0.83;88.55;98853.06;5113899;27;20703;-54
2024/02/09 08:00:08;;;;;;;13.73;9.30;;;;;;;0.85;87.35;98851.41;5120518;27;20725;-55
2024/02/09 08:02:36;;;;;;;14.13;9.30;;;;;;;0.84;87.14;98859.81;5113764;27;20204;-57
2024/02/09 08:05:07;;;;;;;14.20;8.47;;;;;;;0.89;88.20;98848.91;5111451;27;20814;-57
2024/02/09 08:07:37;;;;;;;14.50;8.63;;;;;;;0.98;87.27;98857.41;5113664;28;20199;-56
2024/02/09 08:10:08;;;;;;;12.43;8.13;;;;;;;1.02;86.75;98854.06;5114122;28;20678;-63
2024/02/09 08:12:38;;;;;;;13.90;8.20;;;;;;;1.07;86.70;98842.25;5110765;28;21038;-57
2024/02/09 08:15:07;;;;;;;10.10;6.73;;;;;;;1.12;86.84;98836.38;5113664;28;20587;-58
2024/02/09 08:17:35;;;;;;;10.57;6.77;;;;;;;1.16;84.82;98852.47;5111237;28;20247;-56
2024/02/09 08:20:05;;;;;;;10.43;7.00;;;;;;;1.14;85.40;98859.19;5111377;28;20208;-60
2024/02/09 08:22:34;;;;;;;11.27;5.73;;;;;;;1.17;84.65;98855.00;5106180;28;20643;-57
2024/02/09 08:25:04;;;;;;;10.33;6.70;;;;;;;1.18;84.61;98849.09;5105539;27;20207;-59
2024/02/09 08:27:32;;;;;;;8.87;5.80;;;;;;;1.23;85.32;98838.97;5113418;27;20200;-60
2024/02/09 08:30:00;;;;;;;9.17;6.73;;;;;;;1.28;84.54;98831.38;5112873;28;20207;-63
2024/02/09 08:32:28;;;;;;;11.17;6.23;;;;;;;1.34;85.33;98837.34;5112080;27;20654;-60
2024/02/09 08:34:56;;;;;;;11.13;6.77;;;;;;;1.39;84.08;98833.16;5111193;27;20207;-58
2024/02/09 08:37:25;;;;;;;9.13;5.80;;;;;;;1.48;83.31;98839.13;5108341;27;20261;-63
2024/02/09 08:39:53;;;;;;;9.03;5.40;;;;;;;1.51;83.07;98849.28;5115016;27;20211;-56
2024/02/09 08:42:23;;;;;;;7.60;5.43;;;;;;;1.50;82.54;98852.66;5114776;27;20203;-55
2024/02/09 08:44:51;;;;;;;6.73;4.53;;;;;;;1.50;83.30;98857.75;5116495;27;20268;-55
2024/02/09 08:47:18;;;;;;;8.23;4.90;;;;;;;1.51;82.89;98846.75;5112787;27;20284;-56
2024/02/09 08:49:47;;;;;;;6.43;4.83;;;;;;;1.52;83.01;98840.84;5113259;27;20242;-55
2024/02/09 08:52:17;;;;;;;8.33;6.00;;;;;;;1.55;82.87;98836.63;5111412;27;20215;-65
2024/02/09 08:54:45;;;;;;;8.27;5.70;;;;;;;1.58;82.62;98828.16;5112423;27;20208;-58
2024/02/09 08:57:14;;;;;;;7.30;4.30;;;;;;;1.57;83.10;98841.72;5117942;27;20231;-55
2024/02/09 08:59:44;;;;;;;8.07;4.90;;;;;;;1.50;82.33;98830.66;5117741;27;20196;-55
2024/02/09 09:02:12;;;;;;;12.77;5.80;;;;;;;1.45;83.34;98833.19;5111008;27;20317;-52
2024/02/09 09:04:40;;;;;;;9.20;6.53;;;;;;;1.47;83.90;98817.13;5113042;27;20199;-49
2024/02/09 09:07:08;;;;;;;8.07;5.33;;;;;;;1.50;83.34;98819.66;5107726;27;20211;-50
2024/02/09 09:09:37;;;;;;;8.53;5.10;;;;;;;1.52;83.65;98810.38;5111626;27;20197;-55
2024/02/09 09:12:07;;;;;;;6.37;4.73;;;;;;;1.55;83.43;98805.34;5110861;27;20249;-51
2024/02/09 09:14:40;;;;;;;7.43;4.57;;;;;;;1.59;82.16;98809.56;5109339;27;20203;-54
2024/02/09 09:17:09;;;;;;;10.00;4.70;;;;;;;1.60;82.89;98806.19;5100640;28;20236;-53
2024/02/09 09:19:51;;;;;;;9.90;5.13;;;;;;;1.66;82.31;98806.22;5112851;27;20564;-51
2024/02/09 09:22:20;;;;;;;6.83;4.57;;;;;;;1.65;82.33;98817.19;5105642;27;20220;-55
2024/02/09 09:24:48;;;;;;;8.33;4.87;;;;;;;1.68;82.70;98812.13;5111652;27;20200;-53
2024/02/09 09:27:16;;;;;;;6.90;4.40;;;;;;;1.75;83.38;98818.94;5114185;27;20659;-50
2024/02/09 09:29:44;;;;;;;6.47;4.23;;;;;;;1.80;82.41;98817.25;5115436;27;20651;-53
2024/02/09 09:32:13;;;;;;;6.33;4.40;;;;;;;1.79;82.04;98823.19;5116181;27;20204;-56
2024/02/09 09:34:42;;;;;;;7.67;4.10;;;;;;;1.73;82.36;98812.16;5121661;27;20695;-49
2024/02/09 09:37:10;;;;;;;7.27;5.00;;;;;;;1.72;84.42;98824.00;5102510;28;20191;-54
2024/02/09 09:39:38;;;;;;;6.70;4.57;;;;;;;1.81;84.84;98816.44;5113464;27;20212;-52
2024/02/09 09:42:07;;;;;;;5.43;4.00;;;;;;;1.81;82.96;98818.97;5114834;27;20689;-52
2024/02/09 09:44:35;;;;;;;6.77;4.30;;;;;;;1.75;83.15;98816.41;5111851;27;20215;-51
2024/02/09 09:47:06;;;;;;;5.77;4.47;;;;;;;1.72;83.33;98808.75;5111010;27;20196;-55
2024/02/09 09:49:39;;;;;;;6.50;4.10;;;;;;;1.72;83.23;98806.22;5113901;27;20203;-52
2024/02/09 09:52:15;;;;;;;8.47;4.97;;;;;;;1.75;84.59;98801.16;5112009;28;20195;-53
2024/02/09 09:54:43;;;;;;;5.30;3.93;;;;;;;1.87;84.53;98802.91;5117980;27;20205;-50
2024/02/09 09:57:12;;;;;;;5.97;4.53;;;;;;;1.91;83.71;98800.41;5113313;27;20693;-59
2024/02/09 09:59:40;;;;;;;7.00;4.13;;;;;;;1.92;84.03;98801.25;5119821;27;20701;-54
2024/02/09 10:02:09;;;;;;;6.33;4.20;;;;;;;1.90;83.50;98797.84;5112758;27;20207;-53
2024/02/09 10:04:38;;;;;;;5.87;4.20;;;;;;;1.86;83.38;98801.22;5111188;28;20204;-54
2024/02/09 10:07:08;;;;;;;5.30;3.80;;;;;;;1.84;81.03;98790.19;5110641;28;20553;-51
2024/02/09 10:09:36;;;;;;;5.17;4.00;;;;;;;1.76;83.78;98800.31;5111013;27;20200;-52
2024/02/09 10:12:06;;;;;;;5.03;3.90;;;;;;;1.79;83.86;98810.50;5113370;27;20207;-55
2024/02/09 10:14:34;;;;;;;5.47;4.00;;;;;;;1.84;85.02;98796.13;5117594;27;20212;-51
2024/02/09 10:17:02;;;;;;;6.87;3.70;;;;;;;1.90;83.71;98792.75;5111526;27;20348;-53
2024/02/09 10:19:30;;;;;;;4.90;4.00;;;;;;;1.93;83.60;98798.69;5108677;28;20223;-53
2024/02/09 10:22:00;;;;;;;5.27;3.83;;;;;;;1.85;82.68;98799.53;5117351;27;20707;-53
2024/02/09 10:24:28;;;;;;;7.70;3.40;;;;;;;1.78;83.56;98787.66;5114649;28;20200;-54
2024/02/09 10:26:56;;;;;;;4.70;3.40;;;;;;;1.61;83.86;98787.56;5111289;28;20230;-53
2024/02/09 10:29:26;;;;;;;5.57;3.30;;;;;;;1.56;84.84;98786.72;5115635;28;20207;-52
2024/02/09 10:31:55;;;;;;;5.37;3.47;;;;;;;1.54;85.62;98789.22;5123279;27;20192;-55
2024/02/09 10:34:23;;;;;;;5.63;3.97;;;;;;;1.54;85.43;98796.00;5112721;28;20711;-59
2024/02/09 10:36:56;;;;;;;4.57;3.40;;;;;;;1.50;85.27;98786.66;5105993;27;20196;-53
2024/02/09 10:39:25;;;;;;;5.50;3.40;;;;;;;1.51;84.44;98786.69;5114141;28;20212;-56
2024/02/09 10:41:54;;;;;;;4.67;3.13;;;;;;;1.50;84.46;98786.66;5119489;28;20207;-52
2024/02/09 10:44:25;;;;;;;4.70;3.10;;;;;;;1.44;84.43;98790.06;5111960;28;20643;-51
2024/02/09 10:46:56;;;;;;;4.60;3.33;;;;;;;1.38;85.80;98783.25;5115038;28;20239;-52
2024/02/09 10:49:27;;;;;;;5.33;3.43;;;;;;;1.33;85.99;98779.84;5108257;28;20203;-53
2024/02/09 10:52:00;;;;;;;5.77;3.70;;;;;;;1.36;86.69;98779.00;5116682;28;20303;-58
2024/02/09 10:54:37;;;;;;;5.30;3.27;;;;;;;1.33;85.17;98769.69;5114836;28;20567;-56
2024/02/09 10:57:06;;;;;;;4.53;3.00;;;;;;;1.33;85.52;98774.78;5109862;28;20300;-61
2024/02/09 10:59:36;;;;;;;4.40;3.53;;;;;;;1.33;86.14;98769.69;5111341;28;20286;-52
2024/02/09 11:02:05;;;;;;;6.10;3.47;;;;;;;1.34;86.27;98762.91;5108737;28;20235;-55
2024/02/09 11:04:34;;;;;;;5.80;3.70;;;;;;;1.34;86.26;98766.31;5114403;28;20688;-53
2024/02/09 11:07:02;;;;;;;6.03;3.80;;;;;;;1.29;87.17;98762.03;5107145;28;20203;-53
2024/02/09 11:09:32;;;;;;;5.23;3.93;;;;;;;1.27;86.88;98756.13;5110587;28;20241;-50
2024/02/09 11:12:04;;;;;;;6.30;4.40;;;;;;;1.22;88.35;98757.81;5117206;27;20295;-58
2024/02/09 11:14:34;;;;;;;8.23;4.57;;;;;;;1.15;88.12;98751.84;5120644;27;20658;-54
2024/02/09 11:17:06;;;;;;;5.37;4.30;;;;;;;1.07;88.44;98750.94;5114308;27;20713;-53
2024/02/09 11:19:38;;;;;;;5.40;4.20;;;;;;;0.96;89.92;98764.41;5113680;28;20247;-51
2024/02/09 11:22:08;;;;;;;5.57;4.27;;;;;;;0.94;91.99;98755.94;5118280;27;20200;-55
2024/02/09 11:24:38;;;;;;;6.43;4.27;;;;;;;0.89;91.48;98757.59;5104819;27;20200;-50
2024/02/09 11:27:08;;;;;;;5.60;3.80;;;;;;;0.82;91.30;98743.19;5110834;27;20200;-56
2024/02/09 11:29:36;;;;;;;6.80;4.13;;;;;;;0.75;93.29;98743.16;5114889;27;20196;-51
2024/02/09 11:32:05;;;;;;;6.43;4.10;;;;;;;0.68;93.37;98743.09;5117617;27;20217;-54
2024/02/09 11:34:36;;;;;;;6.33;4.40;;;;;;;0.61;93.98;98735.44;5117827;27;20616;-51
2024/02/09 11:37:05;;;;;;;6.43;4.60;;;;;;;0.53;95.04;98734.53;5116298;27;20776;-53
2024/02/09 11:39:34;;;;;;;6.50;4.67;;;;;;;0.48;95.42;98722.69;5118854;27;20227;-55
2024/02/09 11:42:05;;;;;;;7.80;4.73;;;;;;;0.51;96.14;98723.53;5111136;27;20214;-51
2024/02/09 11:44:35;;;;;;;7.43;4.90;;;;;;;0.46;96.64;98719.28;5112601;27;20275;-51
2024/02/09 11:47:03;;;;;;;6.50;4.30;;;;;;;0.47;96.84;98715.91;5116162;27;20207;-52
2024/02/09 11:49:31;;;;;;;6.07;4.27;;;;;;;0.43;97.71;98706.59;5118147;27;20197;-53
2024/02/09 11:52:04;;;;;;;7.43;4.80;;;;;;;0.42;98.53;98707.44;5110496;27;20227;-56
2024/02/09 11:54:33;;;;;;;6.17;4.67;;;;;;;0.40;98.18;98701.47;5114956;27;20299;-50
2024/02/09 11:57:01;;;;;;;7.17;4.80;;;;;;;0.42;98.00;98711.66;5118702;27;20199;-49
2024/02/09 11:59:37;;;;;;;7.00;4.83;;;;;;;0.41;98.63;98700.66;5113480;27;20306;-53
2024/02/09 12:02:05;;;;;;;6.10;4.73;;;;;;;0.42;99.44;98698.97;5115060;27;20259;-55
2024/02/09 12:04:33;;;;;;;5.07;3.80;;;;;;;0.41;98.89;98704.91;5105418;27;20745;-50
2024/02/09 12:07:01;;;;;;;8.03;4.57;;;;;;;0.39;98.90;98698.94;5114066;28;20701;-52
2024/02/09 12:09:30;;;;;;;7.80;4.53;;;;;;;0.31;99.77;98693.84;5113428;27;20215;-51
2024/02/09 12:11:58;;;;;;;8.73;4.57;;;;;;;0.29;99.60;98692.97;5114117;27;20200;-52
2024/02/09 12:14:26;;;;;;;7.20;4.40;;;;;;;0.30;100.00;98694.69;5118803;27;20203;-52
2024/02/09 12:16:58;;;;;;;6.80;4.50;;;;;;;0.26;100.00;98682.81;5116438;27;20603;-52
2024/02/09 12:19:26;;;;;;;5.93;4.37;;;;;;;0.23;100.00;98690.41;5111547;27;20216;-60
2024/02/09 12:22:00;;;;;;;5.60;4.33;;;;;;;0.21;100.00;98699.66;5111581;27;20306;-55
2024/02/09 12:24:31;;;;;;;6.83;4.97;;;;;;;0.19;100.00;98698.81;5110131;27;20273;-53
2024/02/09 12:26:59;;;;;;;6.57;4.40;;;;;;;0.19;100.00;98706.41;5113420;27;20204;-52
2024/02/09 12:29:27;;;;;;;7.43;4.70;;;;;;;0.19;100.00;98698.81;5113212;27;20192;-55
2024/02/09 12:31:55;;;;;;;8.07;4.80;;;;;;;0.18;100.00;98685.28;5113189;27;20265;-53
2024/02/09 12:34:25;;;;;;;5.47;4.37;;;;;;;0.19;100.00;98673.47;5111443;27;20204;-53
2024/02/09 12:36:57;;;;;;;7.10;4.40;;;;;;;0.17;100.00;98670.91;5106805;27;20215;-49
2024/02/09 12:39:26;;;;;;;5.40;3.87;;;;;;;0.15;100.00;98669.22;5122218;27;20207;-53
2024/02/09 12:41:59;;;;;;;4.67;3.97;;;;;;;0.15;100.00;98676.84;5109915;28;20200;-52
2024/02/09 12:44:30;;;;;;;5.33;4.43;;;;;;;0.14;100.00;98675.13;5112973;27;20241;-54
2024/02/09 12:46:59;;;;;;;4.17;3.70;;;;;;;0.14;100.00;98683.56;5113101;27;20207;-53
2024/02/09 12:49:31;;;;;;;6.63;4.70;;;;;;;0.13;100.00;98676.81;5113930;27;20658;-58
2024/02/09 12:52:00;;;;;;;6.30;4.50;;;;;;;0.11;100.00;98683.56;5117637;27;20621;-55
2024/02/09 12:54:28;;;;;;;6.20;3.87;;;;;;;0.09;100.00;98682.69;5113071;27;20207;-55
2024/02/09 12:56:57;;;;;;;6.40;4.53;;;;;;;0.12;100.00;98697.91;5120311;27;20226;-53
2024/02/09 12:59:24;;;;;;;6.03;4.17;;;;;;;0.11;100.00;98678.50;5118810;27;20234;-54
2024/02/09 13:01:52;;;;;;;6.10;4.20;;;;;;;0.12;100.00;98677.66;5108983;28;20287;-54
2024/02/09 13:04:23;;;;;;;6.17;4.77;;;;;;;0.13;100.00;98666.66;5110284;28;20270;-54
2024/02/09 13:06:52;;;;;;;5.60;4.37;;;;;;;0.15;100.00;98669.22;5116269;27;20200;-59
2024/02/09 13:09:20;;;;;;;6.40;4.53;;;;;;;0.17;100.00;98670.91;5110434;27;20253;-56
2024/02/09 13:11:51;;;;;;;4.90;3.63;;;;;;;0.20;100.00;98675.16;5114570;27;20700;-58
2024/02/09 13:14:21;;;;;;;7.00;4.20;;;;;;;0.17;100.00;98670.91;5109769;27;20282;-57
2024/02/09 13:16:49;;;;;;;7.20;4.77;;;;;;;0.17;100.00;98659.94;5109861;28;20227;-53
2024/02/09 13:19:19;;;;;;;6.40;5.10;;;;;;;0.20;100.00;98667.56;5112290;27;20196;-61
2024/02/09 13:21:52;;;;;;;4.17;3.43;;;;;;;0.18;100.00;98652.34;5116240;27;20263;-54
2024/02/09 13:24:22;;;;;;;8.43;4.93;;;;;;;0.20;100.00;98647.31;5113937;27;20651;-64
2024/02/09 13:26:51;;;;;;;5.80;4.27;;;;;;;0.17;100.00;98635.47;5112480;27;20257;-53
2024/02/09 13:29:24;;;;;;;4.73;3.63;;;;;;;0.15;100.00;98631.25;5112288;27;20196;-54